Time;durP1;ratioP1;P1;durP2;ratioP2;P2;SDS_P1;SDS_P2;PMS_P1;PMS_P2;Temp;Humidity;BMP_temperature;BMP_pressure;BME280_temperature;BME280_humidity;BME280_pressure;Samples;Min_cycle;Max_cycle;Signal;HPM_P1;HPM_P2
2022/08/01 00:01:48;;;;;;;1.42;1.42;;;18.10;99.90;;;;;;6312817;28;20290;-68
2022/08/01 00:04:55;;;;;;;1.00;1.00;;;18.10;99.90;;;;;;6312297;28;20290;-67
2022/08/01 00:08:00;;;;;;;1.13;1.13;;;18.10;99.90;;;;;;6312943;28;20270;-68
2022/08/01 00:11:06;;;;;;;1.88;1.20;;;18.10;99.90;;;;;;6312453;28;20310;-68
2022/08/01 00:14:13;;;;;;;1.90;1.30;;;18.00;99.90;;;;;;6312940;28;20274;-67
2022/08/01 00:17:18;;;;;;;1.23;1.23;;;18.00;99.90;;;;;;6312412;28;20294;-68
2022/08/01 00:20:23;;;;;;;1.30;1.30;;;17.90;99.90;;;;;;6312175;28;20298;-68
2022/08/01 00:23:29;;;;;;;2.05;1.20;;;17.90;99.90;;;;;;6312451;28;20270;-68
2022/08/01 00:26:34;;;;;;;1.40;1.40;;;17.90;99.90;;;;;;6312389;28;20299;-68
2022/08/01 00:29:41;;;;;;;1.27;1.27;;;17.90;99.90;;;;;;6294458;28;20298;-68
2022/08/01 00:33:06;;;;;;;1.25;1.25;;;17.80;99.90;;;;;;6311855;28;20550;-68
2022/08/01 00:36:12;;;;;;;1.20;1.20;;;17.80;99.90;;;;;;6311858;28;20503;-68
2022/08/01 00:39:18;;;;;;;1.65;1.40;;;17.70;99.90;;;;;;6312218;28;20273;-68
2022/08/01 00:42:23;;;;;;;1.10;1.10;;;17.80;99.90;;;;;;6311261;28;20342;-68
2022/08/01 00:45:30;;;;;;;1.30;1.30;;;17.80;99.90;;;;;;6311569;28;20302;-68
2022/08/01 00:48:35;;;;;;;1.40;1.40;;;17.80;99.90;;;;;;6311968;28;20266;-68
2022/08/01 00:51:42;;;;;;;2.03;1.35;;;17.80;99.90;;;;;;6311405;28;20293;-67
2022/08/01 00:54:47;;;;;;;1.50;1.42;;;17.80;99.90;;;;;;6311336;28;20294;-67
2022/08/01 00:57:52;;;;;;;2.25;1.38;;;17.80;99.90;;;;;;6311892;28;20357;-68
2022/08/01 01:01:11;;;;;;;1.10;1.10;;;17.80;99.90;;;;;;6312121;28;20306;-67
2022/08/01 01:04:17;;;;;;;1.30;1.30;;;17.80;99.90;;;;;;6311262;28;20274;-67
2022/08/01 01:07:30;;;;;;;1.27;1.17;;;17.70;99.90;;;;;;6310378;28;20578;-67
2022/08/01 01:10:43;;;;;;;1.50;1.50;;;17.70;99.90;;;;;;6310803;28;20573;-66
2022/08/01 01:13:57;;;;;;;3.58;1.50;;;17.70;99.90;;;;;;6311700;28;20266;-67
2022/08/01 01:17:04;;;;;;;1.23;1.23;;;17.70;99.90;;;;;;6310819;28;20298;-67
2022/08/01 01:20:14;;;;;;;1.23;1.23;;;17.60;99.90;;;;;;6311107;28;20294;-66
2022/08/01 01:23:41;;;;;;;1.60;1.60;;;17.60;99.90;;;;;;6311613;28;20271;-66
2022/08/01 01:26:53;;;;;;;2.17;1.30;;;17.70;99.90;;;;;;6310541;28;20294;-66
2022/08/01 01:30:01;;;;;;;3.13;1.40;;;17.50;99.90;;;;;;6311374;28;20294;-66
2022/08/01 01:33:10;;;;;;;1.67;1.50;;;17.40;99.90;;;;;;6310883;28;20549;-67
2022/08/01 01:36:18;;;;;;;1.33;1.33;;;17.40;99.90;;;;;;6310533;28;20299;-66
2022/08/01 01:39:25;;;;;;;1.17;1.17;;;17.50;99.90;;;;;;6310906;28;20290;-66
2022/08/01 01:42:31;;;;;;;1.50;1.30;;;17.40;99.90;;;;;;6310657;28;20330;-67
2022/08/01 01:45:39;;;;;;;1.40;1.40;;;17.40;99.90;;;;;;6309552;28;20468;-67
2022/08/01 01:48:46;;;;;;;2.72;1.23;;;17.30;99.90;;;;;;6311039;28;20271;-66
2022/08/01 01:51:51;;;;;;;4.57;1.45;;;17.40;99.90;;;;;;6310153;28;20485;-67
2022/08/01 01:55:09;;;;;;;2.22;1.35;;;17.30;99.90;;;;;;6309972;28;20476;-67
2022/08/01 01:58:16;;;;;;;1.30;1.23;;;17.30;99.90;;;;;;6302644;28;20262;-67
2022/08/01 02:01:24;;;;;;;1.30;1.30;;;17.30;99.90;;;;;;6310097;28;20334;-67
2022/08/01 02:04:50;;;;;;;1.20;1.20;;;17.30;99.90;;;;;;6310218;28;20387;-66
2022/08/01 02:07:55;;;;;;;1.20;1.20;;;17.30;99.90;;;;;;6310991;28;20439;-67
2022/08/01 02:14:27;;;;;;;1.40;1.30;;;17.30;99.90;;;;;;6309956;28;20270;-67
2022/08/01 02:17:40;;;;;;;1.30;1.30;;;17.30;99.90;;;;;;6310571;28;20458;-67
2022/08/01 02:20:47;;;;;;;1.45;1.40;;;17.30;99.90;;;;;;6310157;28;20393;-67
2022/08/01 02:24:03;;;;;;;1.38;1.33;;;17.30;99.90;;;;;;6310137;28;20450;-67
2022/08/01 02:27:15;;;;;;;1.30;1.30;;;17.30;99.90;;;;;;6309754;28;20299;-67
2022/08/01 02:30:21;;;;;;;1.77;1.30;;;17.40;99.90;;;;;;6310154;28;20298;-66
2022/08/01 02:33:33;;;;;;;1.50;1.50;;;17.30;99.90;;;;;;6310125;28;20267;-67
2022/08/01 02:36:39;;;;;;;4.22;1.50;;;17.40;99.90;;;;;;6309623;28;20290;-66
2022/08/01 02:39:46;;;;;;;1.50;1.35;;;17.40;99.90;;;;;;6309447;28;20458;-67
2022/08/01 02:42:54;;;;;;;1.67;1.40;;;17.40;99.90;;;;;;6309870;28;20303;-66
2022/08/01 02:46:02;;;;;;;1.15;1.05;;;17.40;99.90;;;;;;6309726;28;20495;-66
2022/08/01 02:49:10;;;;;;;2.05;1.50;;;17.50;99.90;;;;;;6310347;28;20633;-66
2022/08/01 02:52:17;;;;;;;3.40;1.30;;;17.30;99.90;;;;;;6309527;28;20306;-67
2022/08/01 02:55:23;;;;;;;2.97;1.38;;;17.30;99.90;;;;;;6310884;28;20473;-67
2022/08/01 02:58:29;;;;;;;1.40;1.40;;;17.30;99.90;;;;;;6314609;28;20437;-67
2022/08/01 03:01:36;;;;;;;3.92;1.35;;;17.30;99.90;;;;;;6314130;28;20306;-66
2022/08/01 03:04:45;;;;;;;1.55;1.45;;;17.40;99.90;;;;;;6303336;28;20286;-67
2022/08/01 03:07:52;;;;;;;1.38;1.35;;;17.40;99.90;;;;;;6313822;28;20262;-67
2022/08/01 03:10:58;;;;;;;3.13;1.30;;;17.30;99.90;;;;;;6311416;28;20578;-67
2022/08/01 03:14:06;;;;;;;1.17;1.17;;;17.30;99.90;;;;;;6313863;28;20294;-67
2022/08/01 03:17:12;;;;;;;1.40;1.30;;;17.40;99.90;;;;;;6314681;28;20451;-66
2022/08/01 03:20:21;;;;;;;1.38;1.38;;;17.30;99.90;;;;;;6313496;28;20294;-67
2022/08/01 03:23:27;;;;;;;1.40;1.40;;;17.30;99.90;;;;;;6313255;28;20298;-66
2022/08/01 03:26:43;;;;;;;1.58;1.48;;;17.30;99.90;;;;;;6313775;28;20266;-66
2022/08/01 03:29:49;;;;;;;1.65;1.40;;;17.30;99.90;;;;;;6313422;28;20317;-66
2022/08/01 03:32:55;;;;;;;1.80;1.40;;;17.40;99.90;;;;;;6312873;28;20286;-67
2022/08/01 03:36:03;;;;;;;1.40;1.40;;;17.40;99.90;;;;;;6311534;28;20275;-66
2022/08/01 03:39:10;;;;;;;3.05;1.50;;;17.40;99.90;;;;;;6308706;28;20302;-66
2022/08/01 03:42:21;;;;;;;1.30;1.30;;;17.50;99.90;;;;;;6313644;28;20303;-66
2022/08/01 03:45:30;;;;;;;1.52;1.42;;;17.50;99.90;;;;;;6312969;28;20692;-66
2022/08/01 03:48:40;;;;;;;1.40;1.40;;;17.40;99.90;;;;;;6312725;28;20302;-67
2022/08/01 03:51:49;;;;;;;1.35;1.35;;;17.50;99.90;;;;;;6313445;28;20298;-67
2022/08/01 03:54:56;;;;;;;1.40;1.40;;;17.60;99.90;;;;;;6312721;28;20294;-67
2022/08/01 03:58:02;;;;;;;1.42;1.42;;;17.60;99.90;;;;;;6312808;28;20290;-67
2022/08/01 04:01:14;;;;;;;2.33;1.67;;;17.50;99.90;;;;;;6313257;28;20286;-67
2022/08/01 04:04:20;;;;;;;1.35;1.35;;;17.60;99.90;;;;;;6312534;28;20483;-67
2022/08/01 04:07:30;;;;;;;1.70;1.60;;;17.60;99.90;;;;;;6312714;28;20271;-67
2022/08/01 04:10:35;;;;;;;1.67;1.40;;;17.60;99.90;;;;;;6312210;28;20290;-67
2022/08/01 04:13:40;;;;;;;1.52;1.52;;;17.70;99.90;;;;;;6312890;28;20306;-66
2022/08/01 04:16:49;;;;;;;1.50;1.50;;;17.70;99.90;;;;;;6313177;28;20266;-66
2022/08/01 04:19:55;;;;;;;1.45;1.45;;;17.70;99.90;;;;;;6312655;28;20321;-67
2022/08/01 04:23:01;;;;;;;3.47;1.70;;;17.80;99.90;;;;;;6312829;28;20310;-67
2022/08/01 04:26:08;;;;;;;1.52;1.48;;;17.70;99.90;;;;;;6312140;28;20290;-66
2022/08/01 04:29:16;;;;;;;1.35;1.35;;;17.80;99.90;;;;;;6311833;28;20294;-66
2022/08/01 04:32:22;;;;;;;1.60;1.60;;;17.70;99.90;;;;;;6312367;28;20286;-66
2022/08/01 04:35:29;;;;;;;3.75;1.70;;;17.80;99.90;;;;;;6312062;28;20294;-66
2022/08/01 04:39:01;;;;;;;1.95;1.50;;;17.80;99.90;;;;;;6312030;28;20299;-67
2022/08/01 04:42:07;;;;;;;4.85;2.03;;;17.90;99.90;;;;;;6312310;28;20294;-66
2022/08/01 04:45:13;;;;;;;1.40;1.40;;;17.90;99.90;;;;;;6311287;28;20475;-66
2022/08/01 04:48:20;;;;;;;1.60;1.50;;;18.00;99.90;;;;;;6311941;28;20290;-66
2022/08/01 04:51:27;;;;;;;1.35;1.35;;;18.10;99.90;;;;;;6312341;28;20266;-66
2022/08/01 04:54:37;;;;;;;1.95;1.60;;;18.20;99.90;;;;;;6311102;28;20488;-66
2022/08/01 04:57:45;;;;;;;2.30;1.73;;;18.30;99.90;;;;;;6303545;28;20271;-66
2022/08/01 05:00:50;;;;;;;2.70;1.52;;;18.40;99.90;;;;;;6312052;28;20274;-67
2022/08/01 05:03:56;;;;;;;1.67;1.58;;;18.50;99.90;;;;;;6311618;28;20294;-67
2022/08/01 05:07:01;;;;;;;1.50;1.45;;;18.60;99.90;;;;;;6311181;28;20289;-66
2022/08/01 05:10:09;;;;;;;1.63;1.30;;;18.70;99.90;;;;;;6310563;28;20294;-67
2022/08/01 05:13:15;;;;;;;2.67;1.30;;;18.80;99.90;;;;;;6307176;28;20585;-66
2022/08/01 05:16:20;;;;;;;1.77;1.42;;;18.90;99.90;;;;;;6311767;28;20291;-66
2022/08/01 05:19:26;;;;;;;2.38;1.30;;;19.00;99.90;;;;;;6310093;28;20294;-66
2022/08/01 05:22:31;;;;;;;2.38;1.50;;;19.00;99.90;;;;;;6311445;28;20541;-66
2022/08/01 05:25:38;;;;;;;1.35;1.35;;;19.00;99.90;;;;;;6310806;28;20299;-67
2022/08/01 05:29:03;;;;;;;2.53;1.33;;;19.10;99.90;;;;;;6310460;28;20302;-67
2022/08/01 05:32:09;;;;;;;1.40;1.30;;;19.10;99.90;;;;;;6310435;28;20420;-66
2022/08/01 05:35:14;;;;;;;3.03;1.20;;;19.20;99.90;;;;;;6310431;28;20550;-67
2022/08/01 05:38:19;;;;;;;1.67;1.50;;;19.30;99.90;;;;;;6311066;28;20298;-66
2022/08/01 05:41:26;;;;;;;1.65;1.50;;;19.40;99.90;;;;;;6310486;28;20299;-66
2022/08/01 05:44:32;;;;;;;3.47;1.35;;;19.40;99.90;;;;;;6310495;28;20602;-66
2022/08/01 05:47:37;;;;;;;3.97;1.52;;;19.50;99.90;;;;;;6311195;28;20270;-66
2022/08/01 05:50:47;;;;;;;1.50;1.40;;;19.50;99.90;;;;;;6310238;28;20310;-66
2022/08/01 05:53:53;;;;;;;7.13;1.50;;;19.60;99.90;;;;;;6310004;28;20306;-67
2022/08/01 05:57:01;;;;;;;1.95;1.45;;;19.60;99.90;;;;;;6310398;28;20270;-66
2022/08/01 06:00:09;;;;;;;2.85;1.40;;;19.80;99.90;;;;;;6310456;28;20289;-67
2022/08/01 06:03:18;;;;;;;1.52;1.30;;;19.80;99.90;;;;;;6310377;28;20585;-67
2022/08/01 06:06:23;;;;;;;2.80;1.40;;;20.00;99.90;;;;;;6310466;28;20270;-67
2022/08/01 06:09:30;;;;;;;1.20;1.20;;;20.10;99.90;;;;;;6310034;28;20298;-66
2022/08/01 06:12:38;;;;;;;5.22;1.25;;;20.10;99.90;;;;;;6309868;28;20266;-67
2022/08/01 06:15:43;;;;;;;1.52;1.40;;;20.30;99.90;;;;;;6301513;28;20301;-67
2022/08/01 06:18:48;;;;;;;2.97;1.30;;;20.40;99.90;;;;;;6309659;28;20297;-67
2022/08/01 06:21:58;;;;;;;5.57;1.73;;;20.30;99.90;;;;;;6310054;28;20284;-67
2022/08/01 06:25:06;;;;;;;1.35;1.33;;;20.30;99.90;;;;;;6310047;28;20305;-66
2022/08/01 06:28:16;;;;;;;1.02;1.02;;;20.40;99.90;;;;;;6309780;28;20306;-66
2022/08/01 06:31:21;;;;;;;2.20;1.05;;;20.40;99.90;;;;;;6313516;28;20269;-66
2022/08/01 06:34:27;;;;;;;3.03;1.40;;;20.40;99.90;;;;;;6314516;28;20294;-67
2022/08/01 06:37:33;;;;;;;1.35;1.17;;;20.40;99.90;;;;;;6314877;28;20546;-67
2022/08/01 06:40:39;;;;;;;1.73;1.35;;;20.60;99.90;;;;;;6314004;28;20302;-67
2022/08/01 06:43:45;;;;;;;1.88;1.60;;;20.60;99.90;;;;;;6314316;28;20294;-67
2022/08/01 06:46:50;;;;;;;1.50;1.40;;;20.80;99.90;;;;;;6314846;28;20266;-67
2022/08/01 06:49:55;;;;;;;2.22;2.03;;;20.90;99.70;;;;;;6314797;28;20297;-67
2022/08/01 06:53:00;;;;;;;1.55;1.20;;;21.00;99.90;;;;;;6314873;28;20594;-67
2022/08/01 06:56:08;;;;;;;1.27;1.25;;;21.00;99.10;;;;;;6314795;28;20290;-67
2022/08/01 06:59:16;;;;;;;6.47;1.50;;;21.20;99.30;;;;;;6314011;28;20298;-67
2022/08/01 07:02:21;;;;;;;1.33;1.33;;;21.40;99.50;;;;;;6314656;28;20271;-66
2022/08/01 07:05:27;;;;;;;3.33;1.40;;;21.50;97.10;;;;;;6314183;28;20298;-68
2022/08/01 07:08:32;;;;;;;1.30;1.30;;;21.50;95.90;;;;;;6313913;28;20610;-67
2022/08/01 07:11:37;;;;;;;12.55;1.35;;;21.40;96.10;;;;;;6309403;28;20258;-67
2022/08/01 07:14:44;;;;;;;2.63;1.30;;;21.30;96.70;;;;;;6314126;28;20298;-68
2022/08/01 07:17:49;;;;;;;1.70;1.60;;;21.40;96.30;;;;;;6314247;28;20273;-65
2022/08/01 07:20:54;;;;;;;1.42;1.42;;;21.50;96.20;;;;;;6314328;28;20270;-67
2022/08/01 07:24:01;;;;;;;1.38;1.38;;;21.60;95.30;;;;;;6313237;28;20294;-66
2022/08/01 07:27:17;;;;;;;1.30;1.30;;;21.50;95.60;;;;;;6314300;28;20267;-66
2022/08/01 07:30:31;;;;;;;1.30;1.30;;;21.70;95.40;;;;;;6313768;28;20295;-67
2022/08/01 07:33:36;;;;;;;1.27;1.27;;;21.70;95.50;;;;;;6313430;28;20589;-67
2022/08/01 07:36:54;;;;;;;1.48;1.38;;;21.80;95.10;;;;;;6313704;28;20325;-67
2022/08/01 07:39:59;;;;;;;6.47;1.90;;;21.80;95.80;;;;;;6313337;28;20593;-67
2022/08/01 07:43:04;;;;;;;3.35;1.45;;;21.90;94.80;;;;;;6311778;28;20298;-67
2022/08/01 07:46:10;;;;;;;6.50;1.40;;;21.90;94.70;;;;;;6313485;28;20274;-68
2022/08/01 07:49:17;;;;;;;3.30;1.42;;;21.90;95.00;;;;;;6295635;28;20401;-67
2022/08/01 07:52:22;;;;;;;4.00;1.50;;;22.00;94.70;;;;;;6312999;28;20274;-68
2022/08/01 07:55:28;;;;;;;1.35;1.35;;;22.10;93.90;;;;;;6312547;28;20298;-68
2022/08/01 07:58:33;;;;;;;3.83;1.77;;;22.10;94.40;;;;;;6312754;28;20361;-67
2022/08/01 08:01:40;;;;;;;1.08;1.00;;;22.10;92.80;;;;;;6295586;28;20270;-67
2022/08/01 08:04:45;;;;;;;1.38;1.30;;;22.10;91.90;;;;;;6294727;28;20294;-67
2022/08/01 08:07:53;;;;;;;1.45;1.05;;;22.10;91.80;;;;;;6312207;28;20290;-67
2022/08/01 08:10:58;;;;;;;2.67;1.25;;;22.20;92.10;;;;;;6312306;28;20287;-66
2022/08/01 08:14:04;;;;;;;6.80;1.50;;;22.30;91.10;;;;;;6312103;28;20299;-66
2022/08/01 08:17:11;;;;;;;4.05;1.30;;;22.30;90.80;;;;;;6311870;28;20306;-66
2022/08/01 08:20:16;;;;;;;2.78;1.30;;;22.30;90.50;;;;;;6311614;28;20299;-67
2022/08/01 08:26:48;;;;;;;2.10;1.20;;;22.20;91.50;;;;;;6312367;28;20275;-67
2022/08/01 08:29:56;;;;;;;1.33;1.33;;;22.30;91.40;;;;;;6312147;28;20600;-67
2022/08/01 08:33:03;;;;;;;1.00;1.00;;;22.30;90.70;;;;;;6312090;28;20290;-66
2022/08/01 08:36:17;;;;;;;1.10;1.10;;;22.20;90.20;;;;;;6312398;28;20298;-66
2022/08/01 08:39:23;;;;;;;2.00;1.45;;;22.20;90.60;;;;;;6312167;28;20297;-67
2022/08/01 08:42:28;;;;;;;8.32;1.50;;;22.30;90.50;;;;;;6311787;28;20294;-68
2022/08/01 08:45:34;;;;;;;5.30;1.42;;;22.40;90.60;;;;;;6312045;28;20298;-67
2022/08/01 08:49:02;;;;;;;1.67;1.30;;;22.40;91.00;;;;;;6311383;28;20298;-67
2022/08/01 08:52:11;;;;;;;1.33;1.10;;;22.50;91.20;;;;;;6312602;28;20262;-67
2022/08/01 08:55:17;;;;;;;1.58;1.42;;;22.40;90.30;;;;;;6311087;28;20294;-67
2022/08/01 08:58:27;;;;;;;1.00;1.00;;;22.40;90.50;;;;;;6311727;28;20299;-67
2022/08/01 09:01:35;;;;;;;1.33;1.20;;;22.40;90.60;;;;;;6311446;28;20673;-67
2022/08/01 09:04:42;;;;;;;1.80;1.10;;;22.50;90.60;;;;;;6310859;28;20290;-66
2022/08/01 09:07:47;;;;;;;1.23;1.23;;;22.60;90.70;;;;;;6310619;28;20274;-67
2022/08/01 09:10:53;;;;;;;2.85;1.10;;;22.60;90.70;;;;;;6307084;28;20285;-67
2022/08/01 09:14:09;;;;;;;2.83;1.30;;;22.60;91.10;;;;;;6311449;28;20303;-67
2022/08/01 09:17:16;;;;;;;2.47;1.20;;;22.70;90.80;;;;;;6310978;28;20456;-68
2022/08/01 09:20:25;;;;;;;2.95;2.75;;;22.70;90.70;;;;;;6310920;28;20597;-67
2022/08/01 09:23:34;;;;;;;3.08;2.03;;;22.70;90.90;;;;;;6310951;28;20294;-67
2022/08/01 09:26:39;;;;;;;1.17;1.17;;;22.80;90.40;;;;;;6311268;28;20274;-68
2022/08/01 09:29:45;;;;;;;3.05;1.20;;;22.80;90.40;;;;;;6311269;28;20302;-67
2022/08/01 09:33:06;;;;;;;1.20;1.15;;;22.90;90.50;;;;;;6310704;28;20306;-68
2022/08/01 09:36:25;;;;;;;1.30;1.30;;;23.00;90.20;;;;;;6310521;28;20302;-67
2022/08/01 09:39:36;;;;;;;2.05;1.30;;;23.10;89.70;;;;;;6310302;28;20294;-67
2022/08/01 09:42:41;;;;;;;1.45;1.45;;;23.20;90.90;;;;;;6310917;28;20294;-67
2022/08/01 09:45:47;;;;;;;1.85;1.50;;;23.00;88.80;;;;;;6310560;28;20270;-67
2022/08/01 09:48:59;;;;;;;1.40;1.30;;;23.20;88.90;;;;;;6310094;28;20582;-67
2022/08/01 09:52:16;;;;;;;2.67;1.30;;;23.20;87.90;;;;;;6310880;28;20270;-66
2022/08/01 09:55:22;;;;;;;3.50;1.48;;;23.30;88.40;;;;;;6310289;28;20298;-67
2022/08/01 09:58:28;;;;;;;1.38;1.27;;;23.40;88.20;;;;;;6310254;28;20298;-67
2022/08/01 10:01:45;;;;;;;1.50;1.35;;;23.50;88.10;;;;;;6310540;28;20282;-68
2022/08/01 10:04:52;;;;;;;1.15;1.15;;;23.60;87.90;;;;;;6309693;28;20457;-68
2022/08/01 10:08:06;;;;;;;2.20;1.20;;;23.60;86.70;;;;;;6310269;28;20614;-68
2022/08/01 10:11:13;;;;;;;1.35;1.35;;;23.70;84.90;;;;;;6310300;28;20263;-67
2022/08/01 10:14:20;;;;;;;1.70;1.55;;;23.70;84.90;;;;;;6310218;28;20286;-67
2022/08/01 10:17:27;;;;;;;1.23;1.20;;;23.80;85.80;;;;;;6310427;28;20290;-67
2022/08/01 10:20:52;;;;;;;1.30;1.30;;;23.60;87.50;;;;;;6309580;28;20282;-67
2022/08/01 10:24:04;;;;;;;2.47;1.27;;;23.70;87.00;;;;;;6310359;28;20492;-67
2022/08/01 10:27:11;;;;;;;1.67;1.45;;;23.80;86.10;;;;;;6310333;28;20511;-67
2022/08/01 10:30:17;;;;;;;1.30;1.30;;;23.80;86.10;;;;;;6309835;28;20294;-67
2022/08/01 10:33:30;;;;;;;6.93;1.30;;;23.80;85.20;;;;;;6310143;28;20294;-66
2022/08/01 10:36:56;;;;;;;2.45;1.23;;;23.70;85.70;;;;;;6310129;28;20607;-67
2022/08/01 10:40:04;;;;;;;3.30;1.80;;;23.80;87.40;;;;;;6309877;28;20294;-67
2022/08/01 10:43:30;;;;;;;1.30;1.30;;;23.90;85.00;;;;;;6309732;28;20313;-67
2022/08/01 10:46:39;;;;;;;2.78;1.17;;;23.80;86.00;;;;;;6310025;28;20455;-67
2022/08/01 10:49:54;;;;;;;1.20;1.20;;;23.80;85.60;;;;;;6309662;28;20295;-68
2022/08/01 10:53:22;;;;;;;1.23;1.23;;;23.90;86.90;;;;;;6309618;28;20562;-67
2022/08/01 10:56:45;;;;;;;3.05;1.40;;;23.90;84.30;;;;;;6309805;28;20271;-67
2022/08/01 10:59:54;;;;;;;7.35;1.40;;;24.00;82.60;;;;;;6309490;28;20472;-67
2022/08/01 11:03:07;;;;;;;1.10;1.10;;;24.10;82.80;;;;;;6309014;28;20295;-67
2022/08/01 11:06:19;;;;;;;3.03;1.40;;;24.10;81.70;;;;;;6310212;28;20274;-67
2022/08/01 11:09:30;;;;;;;4.13;1.40;;;24.20;81.30;;;;;;6309537;28;20298;-67
2022/08/01 11:12:44;;;;;;;1.27;1.27;;;24.30;79.60;;;;;;6304573;28;20274;-67
2022/08/01 11:15:49;;;;;;;2.63;1.40;;;24.20;80.30;;;;;;6310055;28;20267;-67
2022/08/01 11:18:55;;;;;;;2.38;1.48;;;24.10;80.10;;;;;;6312764;28;20585;-67
2022/08/01 11:22:03;;;;;;;2.00;1.90;;;24.10;81.90;;;;;;6314841;28;20275;-68
2022/08/01 11:25:08;;;;;;;1.90;1.80;;;24.10;79.90;;;;;;6313966;28;20330;-67
2022/08/01 11:28:24;;;;;;;3.60;1.40;;;24.00;79.30;;;;;;6313421;28;20299;-68
2022/08/01 11:31:39;;;;;;;1.65;1.38;;;24.00;80.80;;;;;;6313775;28;20271;-67
2022/08/01 11:34:55;;;;;;;6.78;1.60;;;23.80;79.20;;;;;;6313270;28;20433;-67
2022/08/01 11:38:24;;;;;;;3.35;1.50;;;23.80;79.80;;;;;;6312879;28;20306;-67
2022/08/01 11:41:31;;;;;;;1.30;1.27;;;23.70;80.40;;;;;;6313581;28;20298;-67
2022/08/01 11:44:51;;;;;;;1.73;1.73;;;23.70;79.30;;;;;;6312946;28;20302;-67
2022/08/01 11:47:56;;;;;;;5.47;1.90;;;23.70;80.10;;;;;;6313136;28;20270;-68
2022/08/01 11:51:01;;;;;;;2.90;1.50;;;23.70;80.90;;;;;;6313418;28;20274;-68
2022/08/01 11:54:07;;;;;;;3.80;1.52;;;23.80;81.90;;;;;;6313377;28;20294;-67
2022/08/01 11:57:18;;;;;;;3.15;1.60;;;23.80;81.60;;;;;;6313112;28;20274;-67
2022/08/01 12:00:30;;;;;;;3.60;1.50;;;23.80;80.90;;;;;;6312466;28;20412;-68
2022/08/01 12:03:35;;;;;;;4.20;1.38;;;23.90;82.90;;;;;;6312838;28;20610;-67
2022/08/01 12:06:41;;;;;;;1.90;1.50;;;23.90;82.40;;;;;;6313157;28;20270;-67
2022/08/01 12:09:47;;;;;;;1.80;1.30;;;23.90;84.90;;;;;;6312772;28;20298;-66
2022/08/01 12:12:54;;;;;;;1.15;1.15;;;23.70;83.30;;;;;;6312356;28;20262;-66
2022/08/01 12:16:08;;;;;;;1.33;1.17;;;23.60;84.30;;;;;;6312840;28;20262;-67
2022/08/01 12:19:20;;;;;;;1.20;1.20;;;23.60;83.30;;;;;;6312133;28;20297;-68
2022/08/01 12:22:26;;;;;;;2.30;1.20;;;23.40;83.60;;;;;;6312579;28;20569;-68
2022/08/01 12:25:31;;;;;;;1.35;1.30;;;23.30;83.10;;;;;;6312466;28;20525;-68
2022/08/01 12:28:40;;;;;;;1.58;1.40;;;23.30;87.80;;;;;;6311441;28;20298;-67
2022/08/01 12:31:47;;;;;;;1.38;1.27;;;23.20;85.50;;;;;;6312727;28;20561;-68
2022/08/01 12:34:54;;;;;;;1.35;1.30;;;23.10;87.00;;;;;;6312508;28;20617;-67
2022/08/01 12:38:07;;;;;;;4.63;1.77;;;23.10;87.10;;;;;;6312349;28;20479;-68
2022/08/01 12:41:12;;;;;;;2.13;1.38;;;23.10;90.70;;;;;;6311836;28;20298;-68
2022/08/01 12:44:18;;;;;;;2.15;1.30;;;23.10;91.00;;;;;;6311594;28;20295;-68
2022/08/01 12:47:25;;;;;;;2.25;1.45;;;23.20;89.20;;;;;;6312425;28;20266;-68
2022/08/01 12:50:32;;;;;;;1.60;1.10;;;23.20;91.30;;;;;;6311557;28;20333;-68
2022/08/01 12:53:38;;;;;;;3.60;1.30;;;23.20;91.80;;;;;;6293912;28;20483;-68
2022/08/01 12:56:45;;;;;;;1.05;1.05;;;23.30;88.00;;;;;;6311817;28;20275;-68
2022/08/01 12:59:54;;;;;;;0.95;0.95;;;23.10;85.80;;;;;;6311392;28;20488;-68
2022/08/01 13:03:06;;;;;;;3.67;1.23;;;23.20;87.40;;;;;;6311170;28;20359;-67
2022/08/01 13:06:14;;;;;;;4.53;1.30;;;23.30;90.20;;;;;;6311275;28;20559;-68
2022/08/01 13:09:21;;;;;;;1.40;1.40;;;23.60;90.80;;;;;;6311073;28;20298;-68
2022/08/01 13:12:27;;;;;;;3.17;1.23;;;23.80;90.40;;;;;;6307165;28;20262;-67
2022/08/01 13:15:35;;;;;;;3.42;1.20;;;23.90;89.80;;;;;;6310970;28;20294;-67
2022/08/01 13:18:51;;;;;;;1.63;1.40;;;24.00;85.50;;;;;;6310535;28;20294;-67
2022/08/01 13:21:58;;;;;;;2.88;1.20;;;23.90;82.70;;;;;;6311032;28;20275;-67
2022/08/01 13:25:15;;;;;;;1.08;1.08;;;23.80;85.20;;;;;;6310938;28;20298;-67
2022/08/01 13:28:27;;;;;;;0.95;0.95;;;23.80;82.10;;;;;;6310877;28;20294;-67
2022/08/01 13:31:33;;;;;;;1.15;1.15;;;23.90;81.20;;;;;;6310784;28;20274;-67
2022/08/01 13:34:41;;;;;;;0.98;0.98;;;23.90;84.20;;;;;;6310488;28;20298;-67
2022/08/01 13:37:47;;;;;;;1.10;1.10;;;23.90;83.70;;;;;;6311014;28;20274;-66
2022/08/01 13:40:59;;;;;;;0.90;0.90;;;23.90;86.70;;;;;;6309697;28;20306;-66
2022/08/01 13:44:04;;;;;;;3.42;1.05;;;24.00;82.40;;;;;;6310306;28;20293;-67
2022/08/01 13:47:10;;;;;;;1.10;1.10;;;24.30;82.90;;;;;;6310459;28;20270;-66
2022/08/01 13:50:22;;;;;;;3.28;1.35;;;24.30;82.00;;;;;;6310733;28;20302;-68
2022/08/01 13:53:28;;;;;;;1.10;1.00;;;24.50;80.30;;;;;;6310264;28;20294;-68
2022/08/01 13:56:33;;;;;;;2.78;1.30;;;24.60;79.30;;;;;;6310428;28;20457;-68
2022/08/01 13:59:39;;;;;;;2.33;2.22;;;24.60;80.50;;;;;;6310301;28;20574;-67
2022/08/01 14:02:44;;;;;;;1.10;1.00;;;24.60;80.30;;;;;;6310057;28;20291;-67
2022/08/01 14:05:50;;;;;;;1.38;1.05;;;24.60;81.10;;;;;;6310454;28;20425;-67
2022/08/01 14:09:03;;;;;;;2.33;1.17;;;24.70;78.70;;;;;;6309803;28;20487;-67
2022/08/01 14:12:21;;;;;;;3.50;1.30;;;24.70;81.20;;;;;;6310741;28;20263;-66
2022/08/01 14:15:27;;;;;;;1.13;1.10;;;24.60;77.50;;;;;;6310333;28;20293;-67
2022/08/01 14:18:43;;;;;;;1.65;1.20;;;24.40;78.00;;;;;;6310253;28;20483;-67
2022/08/01 14:21:52;;;;;;;1.17;1.00;;;25.00;79.30;;;;;;6310661;28;20286;-67
2022/08/01 14:24:58;;;;;;;1.20;1.20;;;25.10;78.80;;;;;;6309440;28;20298;-68
2022/08/01 14:28:09;;;;;;;7.03;1.63;;;24.70;77.90;;;;;;6292476;28;20290;-67
2022/08/01 14:31:14;;;;;;;2.67;1.17;;;24.50;77.70;;;;;;6310413;28;20279;-66
2022/08/01 14:34:19;;;;;;;3.78;1.17;;;24.50;79.10;;;;;;6309725;28;20294;-68
2022/08/01 14:37:26;;;;;;;1.00;1.00;;;24.30;80.90;;;;;;6310860;28;20445;-68
2022/08/01 14:40:34;;;;;;;1.48;0.90;;;24.30;81.10;;;;;;6310087;28;20298;-67
2022/08/01 14:43:41;;;;;;;1.17;1.15;;;24.10;79.00;;;;;;6309982;28;20294;-68
2022/08/01 14:46:47;;;;;;;4.57;1.10;;;24.30;76.20;;;;;;6309724;28;20275;-68
2022/08/01 14:50:03;;;;;;;2.47;1.23;;;24.30;75.90;;;;;;6309963;28;20299;-67
2022/08/01 14:53:10;;;;;;;1.10;1.10;;;24.30;78.00;;;;;;6313440;28;20294;-67
2022/08/01 14:56:15;;;;;;;1.00;1.00;;;24.30;79.00;;;;;;6314854;28;20270;-67
2022/08/01 14:59:20;;;;;;;3.90;1.10;;;24.10;78.70;;;;;;6314049;28;20299;-67
2022/08/01 15:02:26;;;;;;;1.00;1.00;;;24.10;78.50;;;;;;6314780;28;20294;-67
2022/08/01 15:05:32;;;;;;;3.72;1.05;;;24.20;79.40;;;;;;6314832;28;20309;-67
2022/08/01 15:08:39;;;;;;;1.20;1.20;;;24.40;78.20;;;;;;6313926;28;20299;-68
2022/08/01 15:11:46;;;;;;;4.60;1.27;;;24.40;80.10;;;;;;6309545;28;20287;-67
2022/08/01 15:14:51;;;;;;;1.35;1.33;;;24.50;78.80;;;;;;6314216;28;20294;-68
2022/08/01 15:17:56;;;;;;;1.33;1.13;;;24.50;79.80;;;;;;6313598;28;20267;-67
2022/08/01 15:21:02;;;;;;;1.95;1.13;;;24.50;77.40;;;;;;6314020;28;20609;-67
2022/08/01 15:24:10;;;;;;;1.58;1.00;;;24.40;77.00;;;;;;6313832;28;20303;-68
2022/08/01 15:27:15;;;;;;;1.02;1.00;;;24.30;78.60;;;;;;6314289;28;20549;-67
2022/08/01 15:30:20;;;;;;;2.47;1.10;;;24.30;79.20;;;;;;6313797;28;20294;-67
2022/08/01 15:33:31;;;;;;;3.10;1.60;;;24.20;77.30;;;;;;6313207;28;20302;-67
2022/08/01 15:36:36;;;;;;;1.13;1.05;;;24.10;78.10;;;;;;6313953;28;20275;-67
2022/08/01 15:39:47;;;;;;;1.17;1.17;;;23.90;79.60;;;;;;6313653;28;20510;-67
2022/08/01 15:42:52;;;;;;;1.65;1.20;;;23.70;80.50;;;;;;6312723;28;20298;-67
2022/08/01 15:45:58;;;;;;;1.23;1.23;;;23.60;80.00;;;;;;6313891;28;20464;-67
2022/08/01 15:49:05;;;;;;;1.00;1.00;;;23.50;80.10;;;;;;6312981;28;20298;-67
2022/08/01 15:52:11;;;;;;;1.20;1.20;;;23.40;80.00;;;;;;6313448;28;20270;-67
2022/08/01 15:55:28;;;;;;;1.75;1.00;;;23.40;80.50;;;;;;6312932;28;20298;-67
2022/08/01 15:58:33;;;;;;;3.72;1.20;;;23.40;80.60;;;;;;6312488;28;20294;-67
2022/08/01 16:01:39;;;;;;;1.10;1.10;;;23.50;81.50;;;;;;6312935;28;20476;-68
2022/08/01 16:04:44;;;;;;;1.00;1.00;;;23.50;79.80;;;;;;6311815;28;20578;-68
2022/08/01 16:07:50;;;;;;;0.98;0.98;;;23.50;81.40;;;;;;6312776;28;20271;-68
2022/08/01 16:11:07;;;;;;;1.08;1.08;;;23.40;81.20;;;;;;6312767;28;20262;-67
2022/08/01 16:14:12;;;;;;;1.15;1.08;;;23.30;81.50;;;;;;6312638;28;20307;-68
2022/08/01 16:17:19;;;;;;;4.32;1.00;;;23.50;82.60;;;;;;6312980;28;20270;-68
2022/08/01 16:20:24;;;;;;;1.55;1.40;;;23.40;81.60;;;;;;6311953;28;20298;-68
2022/08/01 16:23:31;;;;;;;2.55;2.40;;;23.40;81.10;;;;;;6312083;28;20302;-68
2022/08/01 16:26:37;;;;;;;5.20;2.20;;;23.50;80.70;;;;;;6312424;28;20271;-66
2022/08/01 16:29:42;;;;;;;1.20;1.20;;;23.60;79.80;;;;;;6311931;28;20298;-67